sensor_id;sensor_type;location;lat;lon;timestamp;temperature;humidity
4962;DHT22;2496;52.468;13.342;2023-05-23T00:01:05;18.90;81.90
4962;DHT22;2496;52.468;13.342;2023-05-23T00:03:32;18.90;82.30
4962;DHT22;2496;52.468;13.342;2023-05-23T00:06:00;18.90;82.40
4962;DHT22;2496;52.468;13.342;2023-05-23T00:08:27;18.90;81.90
4962;DHT22;2496;52.468;13.342;2023-05-23T00:10:54;18.90;82.30
4962;DHT22;2496;52.468;13.342;2023-05-23T00:13:21;18.80;82.10
4962;DHT22;2496;52.468;13.342;2023-05-23T00:15:48;18.80;82.10
4962;DHT22;2496;52.468;13.342;2023-05-23T00:18:16;18.80;82.30
4962;DHT22;2496;52.468;13.342;2023-05-23T00:20:44;18.70;82.30
4962;DHT22;2496;52.468;13.342;2023-05-23T00:23:12;18.70;82.50
4962;DHT22;2496;52.468;13.342;2023-05-23T00:25:44;18.70;82.60
4962;DHT22;2496;52.468;13.342;2023-05-23T00:28:13;18.70;82.50
4962;DHT22;2496;52.468;13.342;2023-05-23T00:30:40;18.60;83.40
4962;DHT22;2496;52.468;13.342;2023-05-23T00:33:07;18.60;83.00
4962;DHT22;2496;52.468;13.342;2023-05-23T00:35:35;18.50;83.00
4962;DHT22;2496;52.468;13.342;2023-05-23T00:38:02;18.40;83.20
4962;DHT22;2496;52.468;13.342;2023-05-23T00:40:32;18.40;83.10
4962;DHT22;2496;52.468;13.342;2023-05-23T00:42:59;18.40;83.40
4962;DHT22;2496;52.468;13.342;2023-05-23T00:45:27;18.40;83.60
4962;DHT22;2496;52.468;13.342;2023-05-23T00:47:54;18.40;83.80
4962;DHT22;2496;52.468;13.342;2023-05-23T00:50:24;18.30;83.70
4962;DHT22;2496;52.468;13.342;2023-05-23T00:52:57;18.40;83.70
4962;DHT22;2496;52.468;13.342;2023-05-23T00:55:26;18.30;83.80
4962;DHT22;2496;52.468;13.342;2023-05-23T00:57:54;18.30;84.30
4962;DHT22;2496;52.468;13.342;2023-05-23T01:00:22;18.20;84.40
4962;DHT22;2496;52.468;13.342;2023-05-23T01:02:50;18.20;84.50
4962;DHT22;2496;52.468;13.342;2023-05-23T01:05:19;18.10;84.70
4962;DHT22;2496;52.468;13.342;2023-05-23T01:07:47;18.00;84.80
4962;DHT22;2496;52.468;13.342;2023-05-23T01:10:17;18.10;84.80
4962;DHT22;2496;52.468;13.342;2023-05-23T01:12:54;18.10;84.90
4962;DHT22;2496;52.468;13.342;2023-05-23T01:15:25;18.10;84.90
4962;DHT22;2496;52.468;13.342;2023-05-23T01:17:58;18.00;84.90
4962;DHT22;2496;52.468;13.342;2023-05-23T01:20:29;18.00;84.80
4962;DHT22;2496;52.468;13.342;2023-05-23T01:23:35;18.00;85.10
4962;DHT22;2496;52.468;13.342;2023-05-23T01:26:16;17.90;85.60
4962;DHT22;2496;52.468;13.342;2023-05-23T01:28:49;17.90;85.80
4962;DHT22;2496;52.468;13.342;2023-05-23T01:31:17;17.80;86.00
4962;DHT22;2496;52.468;13.342;2023-05-23T01:33:45;17.80;85.90
4962;DHT22;2496;52.468;13.342;2023-05-23T01:36:15;17.80;86.20
4962;DHT22;2496;52.468;13.342;2023-05-23T01:38:42;17.70;86.10
4962;DHT22;2496;52.468;13.342;2023-05-23T01:41:09;17.70;86.40
4962;DHT22;2496;52.468;13.342;2023-05-23T01:43:36;17.70;86.50
4962;DHT22;2496;52.468;13.342;2023-05-23T01:46:06;17.70;86.20
4962;DHT22;2496;52.468;13.342;2023-05-23T01:48:34;17.70;86.30
4962;DHT22;2496;52.468;13.342;2023-05-23T01:51:02;17.70;86.50
4962;DHT22;2496;52.468;13.342;2023-05-23T01:53:29;17.70;86.50
4962;DHT22;2496;52.468;13.342;2023-05-23T01:55:57;17.70;86.40
4962;DHT22;2496;52.468;13.342;2023-05-23T01:58:27;17.80;86.60
4962;DHT22;2496;52.468;13.342;2023-05-23T02:00:55;17.90;86.30
4962;DHT22;2496;52.468;13.342;2023-05-23T02:03:23;17.90;86.10
4962;DHT22;2496;52.468;13.342;2023-05-23T02:05:50;17.90;86.00
4962;DHT22;2496;52.468;13.342;2023-05-23T02:08:17;17.90;86.20
4962;DHT22;2496;52.468;13.342;2023-05-23T02:10:44;17.90;86.20
4962;DHT22;2496;52.468;13.342;2023-05-23T02:13:11;17.80;86.60
4962;DHT22;2496;52.468;13.342;2023-05-23T02:15:38;17.80;86.10
4962;DHT22;2496;52.468;13.342;2023-05-23T02:18:05;17.80;86.50
4962;DHT22;2496;52.468;13.342;2023-05-23T02:20:33;17.70;86.60
4962;DHT22;2496;52.468;13.342;2023-05-23T02:23:00;17.70;86.90
4962;DHT22;2496;52.468;13.342;2023-05-23T02:25:30;17.70;86.90
4962;DHT22;2496;52.468;13.342;2023-05-23T02:27:57;17.70;86.80
4962;DHT22;2496;52.468;13.342;2023-05-23T02:30:24;17.80;86.60
4962;DHT22;2496;52.468;13.342;2023-05-23T02:32:51;17.90;86.60
4962;DHT22;2496;52.468;13.342;2023-05-23T02:35:18;17.90;86.60
4962;DHT22;2496;52.468;13.342;2023-05-23T02:37:46;17.80;86.50
4962;DHT22;2496;52.468;13.342;2023-05-23T02:40:13;17.80;86.70
4962;DHT22;2496;52.468;13.342;2023-05-23T02:42:40;17.80;86.60
4962;DHT22;2496;52.468;13.342;2023-05-23T02:45:08;17.80;86.80
4962;DHT22;2496;52.468;13.342;2023-05-23T02:47:35;17.80;86.60
4962;DHT22;2496;52.468;13.342;2023-05-23T02:50:02;17.80;86.70
4962;DHT22;2496;52.468;13.342;2023-05-23T02:52:31;17.70;86.70
4962;DHT22;2496;52.468;13.342;2023-05-23T02:54:59;17.70;86.80
4962;DHT22;2496;52.468;13.342;2023-05-23T02:57:26;17.80;86.90
4962;DHT22;2496;52.468;13.342;2023-05-23T02:59:53;17.80;86.70
4962;DHT22;2496;52.468;13.342;2023-05-23T03:02:20;17.70;86.80
4962;DHT22;2496;52.468;13.342;2023-05-23T03:04:47;17.70;87.00
4962;DHT22;2496;52.468;13.342;2023-05-23T03:07:15;17.70;87.10
4962;DHT22;2496;52.468;13.342;2023-05-23T03:09:42;17.70;87.40
4962;DHT22;2496;52.468;13.342;2023-05-23T03:12:10;17.70;87.00
4962;DHT22;2496;52.468;13.342;2023-05-23T03:14:37;17.70;87.10
4962;DHT22;2496;52.468;13.342;2023-05-23T03:17:04;17.80;87.40
4962;DHT22;2496;52.468;13.342;2023-05-23T03:19:31;17.80;87.40
4962;DHT22;2496;52.468;13.342;2023-05-23T03:21:58;17.80;87.20
4962;DHT22;2496;52.468;13.342;2023-05-23T03:24:25;17.70;88.10
4962;DHT22;2496;52.468;13.342;2023-05-23T03:26:52;17.70;88.30
4962;DHT22;2496;52.468;13.342;2023-05-23T03:29:20;17.60;88.50
4962;DHT22;2496;52.468;13.342;2023-05-23T03:31:47;17.60;88.80
4962;DHT22;2496;52.468;13.342;2023-05-23T03:34:14;17.60;89.50
4962;DHT22;2496;52.468;13.342;2023-05-23T03:36:42;17.50;90.10
4962;DHT22;2496;52.468;13.342;2023-05-23T03:39:09;17.50;90.10
4962;DHT22;2496;52.468;13.342;2023-05-23T03:41:36;17.50;90.10
4962;DHT22;2496;52.468;13.342;2023-05-23T03:44:03;17.40;90.30
4962;DHT22;2496;52.468;13.342;2023-05-23T03:46:32;17.40;90.40
4962;DHT22;2496;52.468;13.342;2023-05-23T03:48:59;17.30;90.30
4962;DHT22;2496;52.468;13.342;2023-05-23T03:51:26;17.40;90.40
4962;DHT22;2496;52.468;13.342;2023-05-23T03:53:53;17.30;90.40
4962;DHT22;2496;52.468;13.342;2023-05-23T03:56:20;17.40;90.50
4962;DHT22;2496;52.468;13.342;2023-05-23T03:58:47;17.40;90.40
4962;DHT22;2496;52.468;13.342;2023-05-23T04:01:14;17.40;90.30
4962;DHT22;2496;52.468;13.342;2023-05-23T04:03:43;17.40;90.20
4962;DHT22;2496;52.468;13.342;2023-05-23T04:06:09;17.50;90.10
4962;DHT22;2496;52.468;13.342;2023-05-23T04:08:36;17.50;90.00
4962;DHT22;2496;52.468;13.342;2023-05-23T04:11:06;17.50;90.10
4962;DHT22;2496;52.468;13.342;2023-05-23T04:13:33;17.40;90.30
4962;DHT22;2496;52.468;13.342;2023-05-23T04:16:01;17.40;90.40
4962;DHT22;2496;52.468;13.342;2023-05-23T04:18:30;17.30;90.40
4962;DHT22;2496;52.468;13.342;2023-05-23T04:20:59;17.40;90.60
4962;DHT22;2496;52.468;13.342;2023-05-23T04:23:26;17.40;90.60
4962;DHT22;2496;52.468;13.342;2023-05-23T04:25:53;17.40;90.40
4962;DHT22;2496;52.468;13.342;2023-05-23T04:28:21;17.40;90.40
4962;DHT22;2496;52.468;13.342;2023-05-23T04:30:48;17.40;90.50
4962;DHT22;2496;52.468;13.342;2023-05-23T04:33:16;17.40;90.60
4962;DHT22;2496;52.468;13.342;2023-05-23T04:35:43;17.40;90.80
4962;DHT22;2496;52.468;13.342;2023-05-23T04:38:12;17.40;90.80
4962;DHT22;2496;52.468;13.342;2023-05-23T04:40:39;17.30;90.80
4962;DHT22;2496;52.468;13.342;2023-05-23T04:43:06;17.40;90.80
4962;DHT22;2496;52.468;13.342;2023-05-23T04:45:34;17.40;91.20
4962;DHT22;2496;52.468;13.342;2023-05-23T04:48:02;17.40;91.00
4962;DHT22;2496;52.468;13.342;2023-05-23T04:50:29;17.50;90.80
4962;DHT22;2496;52.468;13.342;2023-05-23T04:52:57;17.50;90.80
4962;DHT22;2496;52.468;13.342;2023-05-23T04:55:26;17.50;90.80
4962;DHT22;2496;52.468;13.342;2023-05-23T04:57:53;17.50;91.00
4962;DHT22;2496;52.468;13.342;2023-05-23T05:00:20;17.40;91.00
4962;DHT22;2496;52.468;13.342;2023-05-23T05:02:48;17.40;91.10
4962;DHT22;2496;52.468;13.342;2023-05-23T05:05:15;17.40;91.00
4962;DHT22;2496;52.468;13.342;2023-05-23T05:07:42;17.40;91.20
4962;DHT22;2496;52.468;13.342;2023-05-23T05:10:10;17.40;91.20
4962;DHT22;2496;52.468;13.342;2023-05-23T05:12:42;17.30;91.10
4962;DHT22;2496;52.468;13.342;2023-05-23T05:15:10;17.30;91.10
4962;DHT22;2496;52.468;13.342;2023-05-23T05:17:37;17.30;91.10
4962;DHT22;2496;52.468;13.342;2023-05-23T05:20:05;17.30;91.20
4962;DHT22;2496;52.468;13.342;2023-05-23T05:22:33;17.30;91.10
4962;DHT22;2496;52.468;13.342;2023-05-23T05:25:01;17.30;91.30
4962;DHT22;2496;52.468;13.342;2023-05-23T05:27:28;17.20;91.40
4962;DHT22;2496;52.468;13.342;2023-05-23T05:29:57;17.20;91.50
4962;DHT22;2496;52.468;13.342;2023-05-23T05:32:29;17.20;91.50
4962;DHT22;2496;52.468;13.342;2023-05-23T05:34:58;17.20;91.60
4962;DHT22;2496;52.468;13.342;2023-05-23T05:37:25;17.20;91.70
4962;DHT22;2496;52.468;13.342;2023-05-23T05:39:53;17.20;91.80
4962;DHT22;2496;52.468;13.342;2023-05-23T05:42:20;17.30;91.70
4962;DHT22;2496;52.468;13.342;2023-05-23T05:44:47;17.30;91.70
4962;DHT22;2496;52.468;13.342;2023-05-23T05:47:15;17.40;91.80
4962;DHT22;2496;52.468;13.342;2023-05-23T05:49:42;17.40;91.60
4962;DHT22;2496;52.468;13.342;2023-05-23T05:52:09;17.40;91.60
4962;DHT22;2496;52.468;13.342;2023-05-23T05:54:36;17.30;92.10
4962;DHT22;2496;52.468;13.342;2023-05-23T05:57:04;17.30;92.20
4962;DHT22;2496;52.468;13.342;2023-05-23T05:59:31;17.30;92.40
4962;DHT22;2496;52.468;13.342;2023-05-23T06:01:58;17.40;92.60
4962;DHT22;2496;52.468;13.342;2023-05-23T06:04:26;17.40;92.90
4962;DHT22;2496;52.468;13.342;2023-05-23T06:06:53;17.50;92.80
4962;DHT22;2496;52.468;13.342;2023-05-23T06:09:20;17.50;92.70
4962;DHT22;2496;52.468;13.342;2023-05-23T06:11:47;17.60;92.60
4962;DHT22;2496;52.468;13.342;2023-05-23T06:14:14;17.60;92.60
4962;DHT22;2496;52.468;13.342;2023-05-23T06:16:41;17.70;92.50
4962;DHT22;2496;52.468;13.342;2023-05-23T06:19:08;17.80;92.70
4962;DHT22;2496;52.468;13.342;2023-05-23T06:21:37;17.80;92.20
4962;DHT22;2496;52.468;13.342;2023-05-23T06:24:04;17.80;91.60
4962;DHT22;2496;52.468;13.342;2023-05-23T06:26:31;17.90;91.80
4962;DHT22;2496;52.468;13.342;2023-05-23T06:28:58;18.00;91.80
4962;DHT22;2496;52.468;13.342;2023-05-23T06:31:25;18.00;91.80
4962;DHT22;2496;52.468;13.342;2023-05-23T06:33:52;18.10;91.80
4962;DHT22;2496;52.468;13.342;2023-05-23T06:36:20;18.20;91.80
4962;DHT22;2496;52.468;13.342;2023-05-23T06:38:48;18.30;91.80
4962;DHT22;2496;52.468;13.342;2023-05-23T06:41:15;18.40;91.70
4962;DHT22;2496;52.468;13.342;2023-05-23T06:43:42;18.60;92.00
4962;DHT22;2496;52.468;13.342;2023-05-23T06:46:09;18.70;91.80
4962;DHT22;2496;52.468;13.342;2023-05-23T06:48:36;18.70;92.00
4962;DHT22;2496;52.468;13.342;2023-05-23T06:51:03;18.80;92.10
4962;DHT22;2496;52.468;13.342;2023-05-23T06:53:30;18.90;92.30
4962;DHT22;2496;52.468;13.342;2023-05-23T06:55:58;19.00;92.10
4962;DHT22;2496;52.468;13.342;2023-05-23T06:58:25;19.10;91.70
4962;DHT22;2496;52.468;13.342;2023-05-23T07:00:52;19.20;91.30
4962;DHT22;2496;52.468;13.342;2023-05-23T07:03:19;19.20;91.40
4962;DHT22;2496;52.468;13.342;2023-05-23T07:05:46;19.20;91.50
4962;DHT22;2496;52.468;13.342;2023-05-23T07:08:13;19.20;91.50
4962;DHT22;2496;52.468;13.342;2023-05-23T07:10:40;19.40;91.50
4962;DHT22;2496;52.468;13.342;2023-05-23T07:13:09;19.50;91.20
4962;DHT22;2496;52.468;13.342;2023-05-23T07:15:36;19.40;91.20
4962;DHT22;2496;52.468;13.342;2023-05-23T07:18:03;19.40;91.60
4962;DHT22;2496;52.468;13.342;2023-05-23T07:20:31;19.30;91.60
4962;DHT22;2496;52.468;13.342;2023-05-23T07:22:58;19.20;91.80
4962;DHT22;2496;52.468;13.342;2023-05-23T07:25:26;19.00;92.20
4962;DHT22;2496;52.468;13.342;2023-05-23T07:27:53;19.00;92.50
4962;DHT22;2496;52.468;13.342;2023-05-23T07:30:21;19.10;92.50
4962;DHT22;2496;52.468;13.342;2023-05-23T07:32:48;19.20;92.60
4962;DHT22;2496;52.468;13.342;2023-05-23T07:35:17;19.30;92.60
4962;DHT22;2496;52.468;13.342;2023-05-23T07:37:48;19.40;92.20
4962;DHT22;2496;52.468;13.342;2023-05-23T07:40:15;19.50;92.30
4962;DHT22;2496;52.468;13.342;2023-05-23T07:42:42;19.70;91.80
4962;DHT22;2496;52.468;13.342;2023-05-23T07:45:10;19.80;91.70
4962;DHT22;2496;52.468;13.342;2023-05-23T07:47:38;19.90;91.70
4962;DHT22;2496;52.468;13.342;2023-05-23T07:50:07;20.00;91.70
4962;DHT22;2496;52.468;13.342;2023-05-23T07:52:34;19.90;91.70
4962;DHT22;2496;52.468;13.342;2023-05-23T07:55:01;19.90;91.80
4962;DHT22;2496;52.468;13.342;2023-05-23T07:57:28;20.00;92.40
4962;DHT22;2496;52.468;13.342;2023-05-23T07:59:55;20.00;92.10
4962;DHT22;2496;52.468;13.342;2023-05-23T08:02:22;20.00;92.20
4962;DHT22;2496;52.468;13.342;2023-05-23T08:04:50;20.00;92.40
4962;DHT22;2496;52.468;13.342;2023-05-23T08:07:18;19.90;92.30
4962;DHT22;2496;52.468;13.342;2023-05-23T08:09:46;20.00;92.60
4962;DHT22;2496;52.468;13.342;2023-05-23T08:12:13;20.10;92.70
4962;DHT22;2496;52.468;13.342;2023-05-23T08:14:40;20.00;92.40
4962;DHT22;2496;52.468;13.342;2023-05-23T08:17:07;19.80;92.70
4962;DHT22;2496;52.468;13.342;2023-05-23T08:19:34;20.10;92.90
4962;DHT22;2496;52.468;13.342;2023-05-23T08:22:03;20.70;92.60
4962;DHT22;2496;52.468;13.342;2023-05-23T08:24:30;21.20;92.00
4962;DHT22;2496;52.468;13.342;2023-05-23T08:26:58;21.50;91.20
4962;DHT22;2496;52.468;13.342;2023-05-23T08:29:26;21.60;90.90
4962;DHT22;2496;52.468;13.342;2023-05-23T08:31:53;21.60;91.10
4962;DHT22;2496;52.468;13.342;2023-05-23T08:34:20;21.70;91.40
4962;DHT22;2496;52.468;13.342;2023-05-23T08:36:46;21.80;91.30
4962;DHT22;2496;52.468;13.342;2023-05-23T08:39:15;21.90;91.70
4962;DHT22;2496;52.468;13.342;2023-05-23T08:41:42;22.30;91.90
4962;DHT22;2496;52.468;13.342;2023-05-23T08:44:09;22.50;91.20
4962;DHT22;2496;52.468;13.342;2023-05-23T08:46:39;22.50;91.00
4962;DHT22;2496;52.468;13.342;2023-05-23T08:49:09;22.30;91.30
4962;DHT22;2496;52.468;13.342;2023-05-23T08:51:37;22.40;91.70
4962;DHT22;2496;52.468;13.342;2023-05-23T08:54:09;22.80;91.60
4962;DHT22;2496;52.468;13.342;2023-05-23T08:56:39;23.20;91.30
4962;DHT22;2496;52.468;13.342;2023-05-23T08:59:08;23.10;91.50
4962;DHT22;2496;52.468;13.342;2023-05-23T09:01:36;23.00;91.70
4962;DHT22;2496;52.468;13.342;2023-05-23T09:04:05;22.70;92.20
4962;DHT22;2496;52.468;13.342;2023-05-23T09:06:33;22.40;92.90
4962;DHT22;2496;52.468;13.342;2023-05-23T09:09:00;22.60;93.00
4962;DHT22;2496;52.468;13.342;2023-05-23T09:11:28;22.90;92.60
4962;DHT22;2496;52.468;13.342;2023-05-23T09:13:59;23.10;92.10
4962;DHT22;2496;52.468;13.342;2023-05-23T09:16:31;23.10;92.30
4962;DHT22;2496;52.468;13.342;2023-05-23T09:18:59;23.00;92.60
4962;DHT22;2496;52.468;13.342;2023-05-23T09:21:35;22.80;93.00
4962;DHT22;2496;52.468;13.342;2023-05-23T09:24:02;22.60;93.40
4962;DHT22;2496;52.468;13.342;2023-05-23T09:26:31;22.60;93.40
4962;DHT22;2496;52.468;13.342;2023-05-23T09:28:58;22.60;93.20
4962;DHT22;2496;52.468;13.342;2023-05-23T09:31:26;22.60;93.00
4962;DHT22;2496;52.468;13.342;2023-05-23T09:33:54;22.30;93.60
4962;DHT22;2496;52.468;13.342;2023-05-23T09:36:21;22.20;93.90
4962;DHT22;2496;52.468;13.342;2023-05-23T09:38:48;22.10;94.30
4962;DHT22;2496;52.468;13.342;2023-05-23T09:41:19;22.00;94.60
4962;DHT22;2496;52.468;13.342;2023-05-23T09:43:49;22.00;94.90
4962;DHT22;2496;52.468;13.342;2023-05-23T09:46:18;22.00;94.90
4962;DHT22;2496;52.468;13.342;2023-05-23T09:48:47;22.00;95.10
4962;DHT22;2496;52.468;13.342;2023-05-23T09:51:18;22.00;94.70
4962;DHT22;2496;52.468;13.342;2023-05-23T09:53:45;22.00;94.40
4962;DHT22;2496;52.468;13.342;2023-05-23T09:56:12;22.00;94.60
4962;DHT22;2496;52.468;13.342;2023-05-23T09:58:43;22.00;95.00
4962;DHT22;2496;52.468;13.342;2023-05-23T10:01:11;21.90;95.50
4962;DHT22;2496;52.468;13.342;2023-05-23T10:03:44;21.70;96.30
4962;DHT22;2496;52.468;13.342;2023-05-23T10:06:19;21.60;96.60
4962;DHT22;2496;52.468;13.342;2023-05-23T10:08:53;21.70;96.80
4962;DHT22;2496;52.468;13.342;2023-05-23T10:14:28;21.60;97.90
4962;DHT22;2496;52.468;13.342;2023-05-23T10:17:06;21.80;97.90
4962;DHT22;2496;52.468;13.342;2023-05-23T10:19:39;21.80;98.00
4962;DHT22;2496;52.468;13.342;2023-05-23T10:22:11;21.90;98.20
4962;DHT22;2496;52.468;13.342;2023-05-23T10:24:39;21.80;98.20
4962;DHT22;2496;52.468;13.342;2023-05-23T10:27:07;21.50;98.60
4962;DHT22;2496;52.468;13.342;2023-05-23T10:29:35;21.40;98.90
4962;DHT22;2496;52.468;13.342;2023-05-23T10:32:03;21.30;99.20
4962;DHT22;2496;52.468;13.342;2023-05-23T10:34:36;21.20;99.60
4962;DHT22;2496;52.468;13.342;2023-05-23T10:37:07;21.10;99.90
4962;DHT22;2496;52.468;13.342;2023-05-23T10:39:49;21.00;99.90
4962;DHT22;2496;52.468;13.342;2023-05-23T10:42:26;20.90;99.90
4962;DHT22;2496;52.468;13.342;2023-05-23T10:45:13;20.90;99.90
4962;DHT22;2496;52.468;13.342;2023-05-23T10:47:40;21.00;99.90
4962;DHT22;2496;52.468;13.342;2023-05-23T10:50:11;21.10;99.90
4962;DHT22;2496;52.468;13.342;2023-05-23T10:52:40;21.40;99.90
4962;DHT22;2496;52.468;13.342;2023-05-23T10:55:14;21.50;99.90
4962;DHT22;2496;52.468;13.342;2023-05-23T10:57:42;21.60;99.90
4962;DHT22;2496;52.468;13.342;2023-05-23T11:00:14;21.50;99.90
4962;DHT22;2496;52.468;13.342;2023-05-23T11:02:53;21.30;99.90
4962;DHT22;2496;52.468;13.342;2023-05-23T11:05:22;21.10;99.90
4962;DHT22;2496;52.468;13.342;2023-05-23T11:08:06;20.90;99.90
4962;DHT22;2496;52.468;13.342;2023-05-23T11:10:54;20.80;99.90
4962;DHT22;2496;52.468;13.342;2023-05-23T11:13:21;20.70;99.90
4962;DHT22;2496;52.468;13.342;2023-05-23T11:15:49;20.50;99.90
4962;DHT22;2496;52.468;13.342;2023-05-23T11:18:21;20.30;99.90
4962;DHT22;2496;52.468;13.342;2023-05-23T11:20:51;20.20;99.90
4962;DHT22;2496;52.468;13.342;2023-05-23T11:23:18;20.20;99.90
4962;DHT22;2496;52.468;13.342;2023-05-23T11:25:48;20.10;99.90
4962;DHT22;2496;52.468;13.342;2023-05-23T11:28:17;20.10;99.90
4962;DHT22;2496;52.468;13.342;2023-05-23T11:30:47;20.10;99.90
4962;DHT22;2496;52.468;13.342;2023-05-23T11:33:15;20.00;99.90
4962;DHT22;2496;52.468;13.342;2023-05-23T11:35:44;19.90;99.90
4962;DHT22;2496;52.468;13.342;2023-05-23T11:38:13;19.70;99.90
4962;DHT22;2496;52.468;13.342;2023-05-23T11:40:42;19.60;99.90
4962;DHT22;2496;52.468;13.342;2023-05-23T11:43:10;19.60;99.90
4962;DHT22;2496;52.468;13.342;2023-05-23T11:45:40;19.60;99.90
4962;DHT22;2496;52.468;13.342;2023-05-23T11:48:08;19.50;99.90
4962;DHT22;2496;52.468;13.342;2023-05-23T11:50:43;19.50;99.90
4962;DHT22;2496;52.468;13.342;2023-05-23T11:53:10;19.50;99.90
4962;DHT22;2496;52.468;13.342;2023-05-23T11:55:39;19.40;99.90
4962;DHT22;2496;52.468;13.342;2023-05-23T11:58:06;19.50;99.90
4962;DHT22;2496;52.468;13.342;2023-05-23T12:00:43;19.50;99.90
4962;DHT22;2496;52.468;13.342;2023-05-23T12:03:10;19.60;99.90
4962;DHT22;2496;52.468;13.342;2023-05-23T12:05:37;19.70;99.90
4962;DHT22;2496;52.468;13.342;2023-05-23T12:08:05;19.80;99.90
4962;DHT22;2496;52.468;13.342;2023-05-23T12:10:32;19.90;99.90
4962;DHT22;2496;52.468;13.342;2023-05-23T12:12:59;20.00;99.90
4962;DHT22;2496;52.468;13.342;2023-05-23T12:15:26;20.00;99.90
4962;DHT22;2496;52.468;13.342;2023-05-23T12:17:57;20.10;99.90
4962;DHT22;2496;52.468;13.342;2023-05-23T12:20:25;20.10;99.90
4962;DHT22;2496;52.468;13.342;2023-05-23T12:22:53;20.00;99.90
4962;DHT22;2496;52.468;13.342;2023-05-23T12:25:21;19.90;99.90
4962;DHT22;2496;52.468;13.342;2023-05-23T12:27:48;19.90;99.90
4962;DHT22;2496;52.468;13.342;2023-05-23T12:30:16;19.90;99.90
4962;DHT22;2496;52.468;13.342;2023-05-23T12:32:44;19.90;99.90
4962;DHT22;2496;52.468;13.342;2023-05-23T12:35:13;19.90;99.90
4962;DHT22;2496;52.468;13.342;2023-05-23T12:37:42;19.90;99.90
4962;DHT22;2496;52.468;13.342;2023-05-23T12:40:12;19.90;99.90
4962;DHT22;2496;52.468;13.342;2023-05-23T12:42:49;19.90;99.90
4962;DHT22;2496;52.468;13.342;2023-05-23T12:45:17;19.80;99.90
4962;DHT22;2496;52.468;13.342;2023-05-23T12:47:44;19.80;99.90
4962;DHT22;2496;52.468;13.342;2023-05-23T12:50:13;19.80;99.90
4962;DHT22;2496;52.468;13.342;2023-05-23T12:52:40;19.80;99.90
4962;DHT22;2496;52.468;13.342;2023-05-23T12:55:08;19.80;99.90
4962;DHT22;2496;52.468;13.342;2023-05-23T12:57:35;19.80;99.90
4962;DHT22;2496;52.468;13.342;2023-05-23T13:00:03;19.80;99.90
4962;DHT22;2496;52.468;13.342;2023-05-23T13:02:31;19.80;99.90
4962;DHT22;2496;52.468;13.342;2023-05-23T13:04:58;19.80;99.90
4962;DHT22;2496;52.468;13.342;2023-05-23T13:07:26;19.80;99.90
4962;DHT22;2496;52.468;13.342;2023-05-23T13:09:54;19.90;99.90
4962;DHT22;2496;52.468;13.342;2023-05-23T13:12:21;19.90;99.90
4962;DHT22;2496;52.468;13.342;2023-05-23T13:14:48;19.90;99.90
4962;DHT22;2496;52.468;13.342;2023-05-23T13:17:16;19.90;99.90
4962;DHT22;2496;52.468;13.342;2023-05-23T13:19:43;19.90;99.90
4962;DHT22;2496;52.468;13.342;2023-05-23T13:22:10;19.90;99.90
4962;DHT22;2496;52.468;13.342;2023-05-23T13:24:39;19.90;99.90
4962;DHT22;2496;52.468;13.342;2023-05-23T13:27:08;19.80;99.90
4962;DHT22;2496;52.468;13.342;2023-05-23T13:29:35;19.70;99.90
4962;DHT22;2496;52.468;13.342;2023-05-23T13:32:02;19.60;99.90
4962;DHT22;2496;52.468;13.342;2023-05-23T13:34:29;19.50;99.90
4962;DHT22;2496;52.468;13.342;2023-05-23T13:36:57;19.40;99.90
4962;DHT22;2496;52.468;13.342;2023-05-23T13:39:24;19.10;99.90
4962;DHT22;2496;52.468;13.342;2023-05-23T13:41:52;18.70;99.90
4962;DHT22;2496;52.468;13.342;2023-05-23T13:44:19;18.40;99.90
4962;DHT22;2496;52.468;13.342;2023-05-23T13:46:46;18.10;99.90
4962;DHT22;2496;52.468;13.342;2023-05-23T13:49:13;17.90;99.90
4962;DHT22;2496;52.468;13.342;2023-05-23T13:51:40;17.80;99.90
4962;DHT22;2496;52.468;13.342;2023-05-23T13:54:08;17.80;99.90
4962;DHT22;2496;52.468;13.342;2023-05-23T13:56:35;17.90;99.90
4962;DHT22;2496;52.468;13.342;2023-05-23T13:59:05;18.10;99.90
4962;DHT22;2496;52.468;13.342;2023-05-23T14:01:32;18.20;99.90
4962;DHT22;2496;52.468;13.342;2023-05-23T14:03:59;18.30;99.90
4962;DHT22;2496;52.468;13.342;2023-05-23T14:06:26;18.50;99.90
4962;DHT22;2496;52.468;13.342;2023-05-23T14:08:53;18.60;99.90
4962;DHT22;2496;52.468;13.342;2023-05-23T14:11:20;18.60;99.90
4962;DHT22;2496;52.468;13.342;2023-05-23T14:13:47;18.60;99.90
4962;DHT22;2496;52.468;13.342;2023-05-23T14:16:16;18.70;99.90
4962;DHT22;2496;52.468;13.342;2023-05-23T14:18:43;18.70;99.90
4962;DHT22;2496;52.468;13.342;2023-05-23T14:21:10;18.70;99.90
4962;DHT22;2496;52.468;13.342;2023-05-23T14:23:37;18.60;99.90
4962;DHT22;2496;52.468;13.342;2023-05-23T14:26:04;18.40;99.90
4962;DHT22;2496;52.468;13.342;2023-05-23T14:28:31;18.30;99.90
4962;DHT22;2496;52.468;13.342;2023-05-23T14:30:58;18.20;99.90
4962;DHT22;2496;52.468;13.342;2023-05-23T14:33:27;18.10;99.90
4962;DHT22;2496;52.468;13.342;2023-05-23T14:35:54;18.10;99.90
4962;DHT22;2496;52.468;13.342;2023-05-23T14:38:21;18.10;99.90
4962;DHT22;2496;52.468;13.342;2023-05-23T14:40:48;18.10;99.90
4962;DHT22;2496;52.468;13.342;2023-05-23T14:43:15;18.10;99.90
4962;DHT22;2496;52.468;13.342;2023-05-23T14:45:42;18.00;99.90
4962;DHT22;2496;52.468;13.342;2023-05-23T14:48:09;17.80;99.90
4962;DHT22;2496;52.468;13.342;2023-05-23T14:50:38;17.60;99.90
4962;DHT22;2496;52.468;13.342;2023-05-23T14:53:05;17.50;99.90
4962;DHT22;2496;52.468;13.342;2023-05-23T14:55:32;17.50;99.90
4962;DHT22;2496;52.468;13.342;2023-05-23T14:57:59;17.50;99.90
4962;DHT22;2496;52.468;13.342;2023-05-23T15:00:28;17.50;99.90
4962;DHT22;2496;52.468;13.342;2023-05-23T15:02:55;17.40;99.90
4962;DHT22;2496;52.468;13.342;2023-05-23T15:05:22;17.40;99.90
4962;DHT22;2496;52.468;13.342;2023-05-23T15:07:51;17.50;99.90
4962;DHT22;2496;52.468;13.342;2023-05-23T15:10:18;17.30;99.90
4962;DHT22;2496;52.468;13.342;2023-05-23T15:12:46;17.10;99.90
4962;DHT22;2496;52.468;13.342;2023-05-23T15:15:13;16.70;99.90
4962;DHT22;2496;52.468;13.342;2023-05-23T15:17:47;16.40;99.90
4962;DHT22;2496;52.468;13.342;2023-05-23T15:20:14;16.20;99.90
4962;DHT22;2496;52.468;13.342;2023-05-23T15:22:41;16.10;99.90
4962;DHT22;2496;52.468;13.342;2023-05-23T15:25:10;15.90;99.90
4962;DHT22;2496;52.468;13.342;2023-05-23T15:27:37;15.90;99.90
4962;DHT22;2496;52.468;13.342;2023-05-23T15:30:05;15.90;99.90
4962;DHT22;2496;52.468;13.342;2023-05-23T15:32:33;15.90;99.90
4962;DHT22;2496;52.468;13.342;2023-05-23T15:35:05;15.90;99.90
4962;DHT22;2496;52.468;13.342;2023-05-23T15:37:32;15.90;99.90
4962;DHT22;2496;52.468;13.342;2023-05-23T15:39:59;15.80;99.90
4962;DHT22;2496;52.468;13.342;2023-05-23T15:42:28;15.80;99.90
4962;DHT22;2496;52.468;13.342;2023-05-23T15:44:55;15.80;99.90
4962;DHT22;2496;52.468;13.342;2023-05-23T15:47:22;15.80;99.90
4962;DHT22;2496;52.468;13.342;2023-05-23T15:49:49;15.80;99.90
4962;DHT22;2496;52.468;13.342;2023-05-23T15:52:16;15.90;99.90
4962;DHT22;2496;52.468;13.342;2023-05-23T15:54:43;15.90;99.90